Time;durP1;ratioP1;P1;durP2;ratioP2;P2;SDS_P1;SDS_P2;PMS_P1;PMS_P2;Temp;Humidity;BMP_temperature;BMP_pressure;BME280_temperature;BME280_humidity;BME280_pressure;Samples;Min_cycle;Max_cycle;Signal;HPM_P1;HPM_P2
2023/06/23 00:01:05;;;;;;;13.98;9.00;;;;;;;28.53;68.82;100515.53;5071301;28;20041;-79
2023/06/23 00:03:33;;;;;;;11.45;8.05;;;;;;;28.61;69.10;100517.16;5072526;28;20483;-79
2023/06/23 00:06:03;;;;;;;15.30;9.13;;;;;;;28.62;69.05;100524.38;5072431;28;20490;-79
2023/06/23 00:08:32;;;;;;;10.98;8.63;;;;;;;28.58;69.43;100529.19;5072692;28;20053;-80
2023/06/23 00:11:00;;;;;;;12.98;9.18;;;;;;;28.59;69.64;100519.53;5072303;28;20505;-79
2023/06/23 00:13:28;;;;;;;11.73;8.55;;;;;;;28.82;68.25;100529.53;5072096;28;20077;-79
2023/06/23 00:15:57;;;;;;;12.10;8.95;;;;;;;28.78;68.74;100537.22;5072298;28;20502;-79
2023/06/23 00:18:25;;;;;;;12.75;9.35;;;;;;;28.69;69.34;100534.81;5071332;28;20036;-79
2023/06/23 00:20:54;;;;;;;10.98;8.57;;;;;;;28.72;68.81;100547.28;5071035;28;20574;-79
2023/06/23 00:23:22;;;;;;;12.13;9.27;;;;;;;28.74;69.18;100544.84;5072136;28;20070;-79
2023/06/23 00:25:50;;;;;;;16.48;9.07;;;;;;;28.56;69.63;100540.88;5070931;28;20404;-79
2023/06/23 00:28:18;;;;;;;14.68;8.65;;;;;;;28.41;69.94;100540.13;5072209;28;20040;-79
2023/06/23 00:30:46;;;;;;;12.45;10.07;;;;;;;28.25;71.24;100548.97;5054479;28;20506;-79
2023/06/23 00:33:14;;;;;;;11.30;9.68;;;;;;;28.26;71.24;100563.84;5072042;28;20049;-79
2023/06/23 00:35:42;;;;;;;15.00;10.40;;;;;;;28.15;70.98;100563.81;5070882;28;20040;-79
2023/06/23 00:38:10;;;;;;;12.45;9.00;;;;;;;28.18;71.20;100577.06;5070742;28;20053;-79
2023/06/23 00:40:39;;;;;;;13.65;9.30;;;;;;;28.30;70.88;100582.31;5070836;28;20040;-79
2023/06/23 00:43:07;;;;;;;20.40;10.00;;;;;;;28.15;70.96;100586.34;5071974;28;20369;-79
2023/06/23 00:45:35;;;;;;;17.67;9.85;;;;;;;28.16;70.41;100582.31;5071965;28;20044;-79
2023/06/23 00:48:04;;;;;;;13.38;9.40;;;;;;;28.16;70.04;100580.28;5071952;28;20407;-79
2023/06/23 00:50:32;;;;;;;14.50;9.65;;;;;;;28.13;69.70;100572.66;5071993;28;20045;-79
2023/06/23 00:53:00;;;;;;;14.93;8.65;;;;;;;28.33;68.58;100588.38;5071849;28;20056;-79
2023/06/23 00:55:28;;;;;;;15.40;9.40;;;;;;;28.21;68.90;100584.72;5054543;28;20040;-79
2023/06/23 00:57:58;;;;;;;12.95;9.15;;;;;;;28.16;68.78;100585.91;5071758;28;20480;-80
2023/06/23 01:00:27;;;;;;;12.93;9.32;;;;;;;28.07;68.38;100588.34;5072375;28;20052;-80
2023/06/23 01:03:02;;;;;;;12.80;8.65;;;;;;;28.11;67.46;100600.38;5071787;28;20047;-79
2023/06/23 01:05:39;;;;;;;13.65;9.10;;;;;;;27.92;67.57;100606.38;5071892;28;20060;-80
2023/06/23 01:08:20;;;;;;;10.68;7.78;;;;;;;28.07;66.97;100619.28;5072168;28;20040;-79
2023/06/23 01:11:15;;;;;;;14.07;8.32;;;;;;;28.06;66.85;100612.03;5071782;28;20076;-80
2023/06/23 01:13:55;;;;;;;;;;;;;;;28.05;66.78;100624.47;5072050;28;20051;-79
2023/06/23 01:16:32;;;;;;;14.00;8.20;;;;;;;27.65;67.40;100626.44;5070519;28;19927;-79
2023/06/23 01:19:15;;;;;;;11.70;8.45;;;;;;;27.62;67.92;100637.25;5070358;28;20041;-79
2023/06/23 01:22:02;;;;;;;12.45;8.38;;;;;;;27.47;67.87;100624.34;5071657;28;20045;-79
2023/06/23 01:24:36;;;;;;;11.32;8.10;;;;;;;27.59;67.73;100632.44;5070634;28;20041;-80
2023/06/23 01:27:21;;;;;;;9.70;8.48;;;;;;;27.51;67.57;100625.13;5070395;28;20045;-79
2023/06/23 01:29:52;;;;;;;12.73;8.20;;;;;;;27.63;67.35;100626.81;5073215;28;20044;-79
2023/06/23 01:32:27;;;;;;;13.45;8.68;;;;;;;27.55;68.29;100628.75;5107874;28;20476;-80
2023/06/23 01:35:05;;;;;;;12.55;8.13;;;;;;;27.60;68.67;100636.03;5085239;28;20047;-80
2023/06/23 01:37:36;;;;;;;12.20;8.32;;;;;;;27.58;68.35;100636.44;5095383;28;20040;-80
2023/06/23 01:40:14;;;;;;;13.20;8.10;;;;;;;27.70;67.15;100635.25;5094280;28;20048;-80
2023/06/23 01:42:50;;;;;;;11.70;8.32;;;;;;;27.65;66.74;100623.63;5095441;28;20044;-80
2023/06/23 01:45:22;;;;;;;13.25;8.75;;;;;;;27.61;67.45;100632.84;5095298;28;20482;-80
2023/06/23 01:47:51;;;;;;;11.90;8.93;;;;;;;27.68;66.78;100632.06;5094122;28;20138;-79
2023/06/23 01:50:21;;;;;;;12.38;9.43;;;;;;;27.49;67.70;100630.34;5095276;28;20048;-80
2023/06/23 01:52:53;;;;;;;13.70;8.95;;;;;;;27.37;68.13;100629.50;5095095;28;20487;-80
2023/06/23 01:55:23;;;;;;;12.52;8.85;;;;;;;27.67;67.27;100638.06;5095168;28;20044;-80
2023/06/23 01:57:53;;;;;;;13.25;9.35;;;;;;;27.42;67.35;100621.91;5095067;28;20040;-79
2023/06/23 02:00:22;;;;;;;14.18;9.60;;;;;;;27.46;67.08;100626.31;5094922;28;20059;-80
2023/06/23 02:02:53;;;;;;;13.55;9.18;;;;;;;27.28;68.36;100631.06;5095396;28;20059;-80
2023/06/23 02:05:25;;;;;;;14.00;10.65;;;;;;;27.32;68.27;100637.53;5094870;28;20044;-80
2023/06/23 02:07:55;;;;;;;16.02;9.02;;;;;;;27.27;68.86;100624.63;5094941;28;20123;-80
2023/06/23 02:10:27;;;;;;;11.93;9.10;;;;;;;27.41;68.45;100635.13;5094864;28;20044;-80
2023/06/23 02:12:58;;;;;;;12.18;9.27;;;;;;;27.30;68.87;100623.03;5093362;28;20048;-80
2023/06/23 02:15:28;;;;;;;15.70;9.35;;;;;;;27.07;70.49;100621.34;5094409;28;20044;-80
2023/06/23 02:17:58;;;;;;;17.15;9.35;;;;;;;27.20;70.27;100638.66;5094602;28;20048;-80
2023/06/23 02:20:29;;;;;;;11.80;9.20;;;;;;;27.22;68.57;100616.63;5094735;28;20055;-79
2023/06/23 02:22:58;;;;;;;16.50;9.18;;;;;;;27.20;69.33;100624.63;5094587;28;20044;-79
2023/06/23 02:25:28;;;;;;;11.60;8.60;;;;;;;27.15;68.21;100611.75;5093315;28;20040;-79
2023/06/23 02:27:57;;;;;;;12.63;8.52;;;;;;;27.12;67.51;100606.91;5094495;28;20403;-79
2023/06/23 02:30:26;;;;;;;12.23;8.55;;;;;;;27.11;67.86;100613.75;5094496;28;20114;-80
2023/06/23 02:32:56;;;;;;;12.90;7.85;;;;;;;27.25;66.17;100607.38;5093011;28;20048;-80
2023/06/23 02:35:24;;;;;;;12.55;7.82;;;;;;;27.37;66.07;100617.47;5094115;28;20044;-80
2023/06/23 02:37:58;;;;;;;14.43;8.38;;;;;;;27.45;66.85;100613.47;5094126;28;20048;-79
2023/06/23 02:40:29;;;;;;;12.88;8.55;;;;;;;27.45;67.46;100607.88;5093988;28;20502;-79
2023/06/23 02:43:07;;;;;;;12.38;8.65;;;;;;;27.47;67.39;100607.47;5092373;28;20047;-80
2023/06/23 02:45:41;;;;;;;16.00;9.93;;;;;;;27.19;68.55;100604.16;5094088;28;20040;-79
2023/06/23 02:48:15;;;;;;;13.73;9.82;;;;;;;27.02;69.44;100591.63;5094100;28;20051;-79
2023/06/23 02:50:45;;;;;;;16.17;9.68;;;;;;;27.13;69.12;100596.50;5092914;28;20040;-79
2023/06/23 02:53:22;;;;;;;12.27;8.63;;;;;;;26.95;70.01;100591.59;5092666;28;20048;-80
2023/06/23 02:56:00;;;;;;;17.23;9.57;;;;;;;27.01;70.22;100581.59;5072696;28;20044;-79
2023/06/23 02:58:31;;;;;;;13.60;9.95;;;;;;;27.07;69.77;100579.22;5073630;28;20059;-79
2023/06/23 03:01:04;;;;;;;15.88;9.40;;;;;;;27.07;69.96;100587.63;5072583;28;20044;-80
2023/06/23 03:03:39;;;;;;;12.93;9.15;;;;;;;27.06;70.01;100572.81;5074917;28;20056;-79
2023/06/23 03:06:17;;;;;;;13.77;9.52;;;;;;;27.09;69.79;100577.63;5093853;28;20044;-79
2023/06/23 03:08:49;;;;;;;13.13;9.27;;;;;;;27.17;69.38;100564.41;5093805;28;20060;-79
2023/06/23 03:11:18;;;;;;;14.90;9.52;;;;;;;27.08;69.16;100564.00;5092452;28;20044;-79
2023/06/23 03:13:47;;;;;;;12.60;8.43;;;;;;;27.14;68.47;100570.03;5093442;28;20067;-79
2023/06/23 03:16:29;;;;;;;10.40;8.50;;;;;;;27.09;69.12;100555.16;5092465;28;20044;-79
2023/06/23 03:19:12;;;;;;;11.55;8.30;;;;;;;27.16;67.54;100551.56;5093491;28;20051;-79
2023/06/23 03:21:41;;;;;;;12.48;8.68;;;;;;;27.27;66.69;100562.84;5092314;28;20044;-79
2023/06/23 03:24:14;;;;;;;10.07;7.95;;;;;;;27.15;66.49;100566.00;5093106;28;20044;-79
2023/06/23 03:26:47;;;;;;;9.88;7.72;;;;;;;27.12;66.97;100550.75;5092078;28;20047;-79
2023/06/23 03:29:19;;;;;;;16.50;9.10;;;;;;;27.12;66.09;100561.19;5093455;28;20070;-79
2023/06/23 03:31:51;;;;;;;29.73;8.75;;;;;;;27.14;66.29;100550.38;5093331;28;20047;-79
2023/06/23 03:34:20;;;;;;;23.23;8.50;;;;;;;27.17;65.95;100558.00;5091673;28;20052;-79
2023/06/23 03:36:51;;;;;;;25.42;8.85;;;;;;;27.13;66.26;100552.38;5091840;28;20047;-79
2023/06/23 03:39:24;;;;;;;9.75;7.25;;;;;;;27.19;65.49;100552.78;5093156;28;20063;-79
2023/06/23 03:41:52;;;;;;;12.82;8.45;;;;;;;27.27;65.19;100553.63;5093165;28;20491;-79
2023/06/23 03:44:41;;;;;;;10.05;7.45;;;;;;;27.28;65.71;100546.81;5091654;28;20380;-79
2023/06/23 03:47:17;;;;;;;8.98;7.00;;;;;;;27.17;66.25;100555.19;5093111;28;20040;-79
2023/06/23 03:49:48;;;;;;;12.10;8.13;;;;;;;27.25;66.18;100554.00;5093004;28;20506;-79
2023/06/23 03:52:18;;;;;;;12.23;8.55;;;;;;;27.15;66.74;100560.38;5092612;28;20040;-79
2023/06/23 03:54:49;;;;;;;12.88;8.57;;;;;;;27.09;67.42;100557.97;5092565;28;20066;-79
2023/06/23 03:57:22;;;;;;;15.55;8.43;;;;;;;27.12;68.01;100567.59;5092799;28;20040;-81
2023/06/23 03:59:52;;;;;;;11.93;8.38;;;;;;;27.15;67.89;100566.00;5091884;28;20044;-80
2023/06/23 04:02:23;;;;;;;14.43;8.68;;;;;;;27.12;67.68;100555.59;5092710;28;20039;-81
2023/06/23 04:04:55;;;;;;;14.30;8.63;;;;;;;27.16;67.62;100557.19;5091176;28;20055;-79
2023/06/23 04:07:25;;;;;;;13.13;9.15;;;;;;;27.15;68.29;100566.00;5092272;28;20052;-79
2023/06/23 04:09:55;;;;;;;14.70;10.50;;;;;;;26.94;68.58;100545.88;5092707;28;20052;-79
2023/06/23 04:12:25;;;;;;;15.63;9.90;;;;;;;26.98;68.65;100539.47;5092283;28;20047;-79
2023/06/23 04:14:56;;;;;;;11.75;9.10;;;;;;;27.33;67.16;100560.47;5091987;28;20052;-79
2023/06/23 04:17:26;;;;;;;15.98;8.55;;;;;;;27.11;66.18;100554.75;5092469;28;20048;-79
2023/06/23 04:19:57;;;;;;;12.10;7.90;;;;;;;27.08;66.53;100556.34;5092225;28;20055;-79
2023/06/23 04:22:30;;;;;;;14.85;8.80;;;;;;;26.98;68.00;100551.53;5092275;28;20052;-79
2023/06/23 04:25:00;;;;;;;12.13;9.27;;;;;;;26.86;67.87;100561.03;5091237;28;20036;-78
2023/06/23 04:27:31;;;;;;;11.50;8.88;;;;;;;27.16;66.68;100559.19;5091443;28;20399;-79
2023/06/23 04:30:01;;;;;;;17.52;8.70;;;;;;;27.12;67.02;100550.75;5089479;28;20047;-80
2023/06/23 04:32:31;;;;;;;14.38;9.52;;;;;;;27.00;67.53;100551.91;5092317;28;20052;-79
2023/06/23 04:34:59;;;;;;;14.98;9.70;;;;;;;26.92;68.16;100553.88;5087875;28;20494;-80
2023/06/23 04:37:41;;;;;;;13.57;9.20;;;;;;;26.99;68.19;100558.75;5091859;28;20487;-79
2023/06/23 04:40:34;;;;;;;13.88;9.32;;;;;;;26.90;68.52;100553.47;5092240;28;20059;-80
2023/06/23 04:43:09;;;;;;;15.50;9.05;;;;;;;26.81;68.04;100559.44;5092066;28;20055;-81
2023/06/23 04:45:46;;;;;;;11.68;9.27;;;;;;;26.83;68.65;100562.63;5092296;28;20051;-79
2023/06/23 04:48:16;;;;;;;12.02;8.57;;;;;;;27.09;67.44;100562.78;5091977;28;20044;-79
2023/06/23 04:50:47;;;;;;;14.07;10.35;;;;;;;26.98;67.69;100568.38;5092100;28;20059;-80
2023/06/23 04:53:20;;;;;;;12.93;9.75;;;;;;;27.10;66.72;100581.25;5091916;28;20040;-79
2023/06/23 04:55:53;;;;;;;15.50;9.85;;;;;;;27.04;67.42;100582.81;5091804;28;20040;-79
2023/06/23 04:58:23;;;;;;;13.00;9.38;;;;;;;27.00;67.29;100585.63;5091589;28;20051;-81
2023/06/23 05:00:52;;;;;;;11.88;9.10;;;;;;;27.31;66.66;100594.56;5092081;28;20051;-81
2023/06/23 05:03:23;;;;;;;15.70;10.57;;;;;;;27.33;66.98;100599.78;5091838;28;20471;-81
2023/06/23 05:05:54;;;;;;;14.13;8.77;;;;;;;27.40;67.57;100597.00;5095268;28;20051;-79
2023/06/23 05:08:26;;;;;;;14.13;8.73;;;;;;;27.46;67.61;100600.25;5095844;28;20047;-85
2023/06/23 05:10:59;;;;;;;21.55;9.35;;;;;;;27.65;66.78;100603.94;5095370;28;20035;-83
2023/06/23 05:13:30;;;;;;;16.60;9.35;;;;;;;27.64;66.52;100605.94;5095775;28;20075;-84
2023/06/23 05:16:00;;;;;;;15.55;8.68;;;;;;;27.82;66.22;100614.41;5090511;28;20521;-85
2023/06/23 05:18:29;;;;;;;16.02;9.13;;;;;;;27.78;66.16;100616.41;5095624;28;20052;-86
2023/06/23 05:21:02;;;;;;;14.82;9.50;;;;;;;27.74;66.54;100613.59;5095331;28;20036;-84
2023/06/23 05:23:35;;;;;;;13.98;9.75;;;;;;;27.70;66.85;100607.16;5095596;28;20052;-84
2023/06/23 05:26:21;;;;;;;13.25;10.15;;;;;;;27.74;66.73;100599.53;5094781;28;20479;-86
2023/06/23 05:28:52;;;;;;;14.10;9.38;;;;;;;27.76;66.71;100597.13;5095424;28;20052;-84
2023/06/23 05:31:24;;;;;;;16.40;10.35;;;;;;;27.82;66.96;100594.75;5094149;28;20043;-84
2023/06/23 05:33:53;;;;;;;14.77;10.27;;;;;;;27.80;66.94;100593.53;5094735;28;20055;-84
2023/06/23 05:36:23;;;;;;;13.82;9.60;;;;;;;27.89;66.93;100591.94;5093624;28;20047;-86
2023/06/23 05:38:53;;;;;;;13.73;9.10;;;;;;;28.09;66.40;100599.97;5095260;28;20051;-84
2023/06/23 05:41:21;;;;;;;13.02;9.25;;;;;;;28.17;66.16;100593.16;5095464;28;20474;-84
2023/06/23 05:43:49;;;;;;;14.38;9.32;;;;;;;28.25;66.15;100587.56;5094757;28;20051;-84
2023/06/23 05:46:21;;;;;;;12.35;8.73;;;;;;;28.22;67.21;100596.75;5094851;28;20051;-86
2023/06/23 05:48:52;;;;;;;11.48;8.93;;;;;;;28.25;65.79;100596.00;5086763;28;20045;-84
2023/06/23 05:51:29;;;;;;;13.27;8.68;;;;;;;28.39;64.91;100595.97;5095249;28;20048;-85
2023/06/23 05:54:01;;;;;;;12.20;7.88;;;;;;;28.44;63.96;100594.75;5094094;28;20047;-85
2023/06/23 05:56:36;;;;;;;10.43;8.05;;;;;;;28.46;62.94;100577.47;5095025;28;20079;-84
2023/06/23 05:59:11;;;;;;;14.00;8.43;;;;;;;28.50;62.66;100595.16;5094046;28;20040;-84
2023/06/23 06:01:43;;;;;;;11.52;7.82;;;;;;;28.59;61.74;100586.31;5094403;28;20055;-86
2023/06/23 06:04:17;;;;;;;11.40;7.15;;;;;;;28.62;61.80;100586.31;5095025;28;20044;-85
2023/06/23 06:06:47;;;;;;;11.85;7.70;;;;;;;28.72;61.07;100595.94;5094861;28;20059;-86
2023/06/23 06:09:17;;;;;;;14.73;7.85;;;;;;;28.63;61.40;100578.69;5093332;28;20055;-87
2023/06/23 06:11:47;;;;;;;10.40;7.43;;;;;;;28.72;61.06;100590.28;5094619;28;20056;-86
2023/06/23 06:14:17;;;;;;;12.60;7.97;;;;;;;28.77;59.66;100591.88;5093621;28;20047;-85
2023/06/23 06:16:47;;;;;;;12.60;7.05;;;;;;;28.90;58.86;100593.09;5093519;28;20059;-88
2023/06/23 06:19:19;;;;;;;11.40;6.78;;;;;;;28.92;59.03;100587.88;5095472;28;20047;-86
2023/06/23 06:21:49;;;;;;;12.70;7.50;;;;;;;28.90;58.42;100578.22;5098509;28;20071;-88
2023/06/23 06:24:19;;;;;;;11.60;6.82;;;;;;;29.03;58.43;100589.84;5094652;28;20071;-92
2023/06/23 06:26:50;;;;;;;10.55;7.57;;;;;;;28.92;58.59;100581.41;5078177;28;20052;-93
2023/06/23 06:29:20;;;;;;;9.65;6.90;;;;;;;29.15;58.17;100595.03;5077673;28;20048;-93
2023/06/23 06:31:50;;;;;;;13.77;6.97;;;;;;;29.21;58.28;100587.75;5061510;28;20040;-92
2023/06/23 06:34:23;;;;;;;8.82;6.35;;;;;;;29.20;58.18;100596.63;5065322;28;20048;-88
2023/06/23 06:36:54;;;;;;;11.93;7.03;;;;;;;29.23;57.19;100584.53;5102588;28;20040;-89
2023/06/23 06:39:24;;;;;;;11.23;7.32;;;;;;;29.26;57.67;100588.56;5101494;28;20040;-88
2023/06/23 06:41:53;;;;;;;8.70;6.35;;;;;;;29.41;56.76;100587.25;5099322;28;20062;-87
2023/06/23 06:44:23;;;;;;;10.93;6.68;;;;;;;29.38;57.22;100580.41;5094121;28;20063;-87
2023/06/23 06:46:52;;;;;;;11.93;7.00;;;;;;;29.37;57.45;100581.63;5075653;28;20057;-84
2023/06/23 06:49:24;;;;;;;10.98;6.60;;;;;;;29.50;56.10;100582.00;5076622;28;20053;-85
2023/06/23 06:51:52;;;;;;;9.35;5.75;;;;;;;29.71;56.03;100585.09;5076321;28;20055;-84
2023/06/23 06:54:21;;;;;;;8.88;6.38;;;;;;;29.72;55.19;100581.84;5077286;28;20044;-85
2023/06/23 06:56:50;;;;;;;8.85;5.93;;;;;;;29.57;54.38;100583.97;5078587;28;20049;-85
2023/06/23 06:59:19;;;;;;;9.10;5.90;;;;;;;29.76;54.05;100582.63;5075931;28;20037;-85
2023/06/23 07:01:48;;;;;;;8.55;5.93;;;;;;;29.85;53.83;100578.53;5073851;28;20483;-84
2023/06/23 07:04:17;;;;;;;7.35;5.63;;;;;;;29.94;53.53;100578.88;5073479;28;20395;-84
2023/06/23 07:06:51;;;;;;;8.40;5.90;;;;;;;29.89;53.26;100579.31;5073357;28;20048;-84
2023/06/23 07:09:20;;;;;;;11.52;6.75;;;;;;;29.82;53.16;100568.91;5072402;28;20048;-85
2023/06/23 07:11:56;;;;;;;7.72;5.40;;;;;;;29.99;51.88;100578.44;5072979;28;20395;-84
2023/06/23 07:14:25;;;;;;;7.13;5.43;;;;;;;30.08;51.88;100571.50;5055642;28;20391;-84
2023/06/23 07:16:54;;;;;;;7.57;5.53;;;;;;;30.09;51.51;100570.31;5072988;28;20072;-84
2023/06/23 07:19:22;;;;;;;5.72;4.93;;;;;;;30.14;51.85;100569.88;5071776;28;20045;-82
2023/06/23 07:21:51;;;;;;;8.20;5.40;;;;;;;30.25;50.78;100579.06;5072906;28;20051;-82
2023/06/23 07:24:19;;;;;;;8.40;6.05;;;;;;;30.26;50.47;100572.19;5073041;28;20059;-85
2023/06/23 07:26:48;;;;;;;8.10;5.75;;;;;;;30.38;51.23;100570.88;5072591;28;20049;-84
2023/06/23 07:29:16;;;;;;;11.07;5.88;;;;;;;30.41;48.52;100574.88;5072988;28;20044;-85
2023/06/23 07:31:44;;;;;;;7.57;4.40;;;;;;;30.40;48.70;100562.78;5072894;28;20045;-82
2023/06/23 07:34:13;;;;;;;9.48;5.35;;;;;;;30.56;49.04;100575.53;5077004;28;20048;-82
2023/06/23 07:36:41;;;;;;;8.80;5.28;;;;;;;30.52;49.35;100569.94;5076911;28;20407;-83
2023/06/23 07:39:10;;;;;;;8.15;5.65;;;;;;;30.56;50.11;100570.69;5077617;28;20048;-82
2023/06/23 07:41:39;;;;;;;11.23;7.15;;;;;;;30.50;53.13;100563.88;5077296;28;20193;-83
2023/06/23 07:44:07;;;;;;;12.25;7.85;;;;;;;30.65;53.59;100560.94;5076742;28;20052;-82
2023/06/23 07:46:35;;;;;;;12.70;7.43;;;;;;;30.62;54.41;100553.28;5075647;28;20041;-82
2023/06/23 07:49:04;;;;;;;14.57;8.35;;;;;;;30.70;53.82;100557.69;5073428;28;20052;-83
2023/06/23 07:51:32;;;;;;;13.60;8.52;;;;;;;30.60;53.45;100558.56;5077382;28;20051;-83
2023/06/23 07:54:01;;;;;;;11.55;7.57;;;;;;;30.71;54.00;100559.28;5081071;28;20037;-83
2023/06/23 07:56:34;;;;;;;10.07;7.45;;;;;;;30.77;54.34;100568.88;5080401;28;20048;-83
2023/06/23 07:59:03;;;;;;;11.35;7.82;;;;;;;30.68;54.47;100565.72;5080684;28;20049;-83
2023/06/23 08:01:32;;;;;;;10.73;8.25;;;;;;;30.68;55.14;100566.56;5080413;28;20043;-83
2023/06/23 08:04:00;;;;;;;12.20;7.93;;;;;;;30.81;55.12;100564.00;5080428;28;20063;-82
2023/06/23 08:06:29;;;;;;;10.73;7.35;;;;;;;30.97;54.10;100571.06;5111809;28;20075;-83
2023/06/23 08:08:58;;;;;;;11.05;8.73;;;;;;;30.93;54.52;100570.34;5080533;28;20049;-83
2023/06/23 08:11:26;;;;;;;10.05;7.97;;;;;;;30.97;54.34;100566.22;5091866;28;20045;-83
2023/06/23 08:13:55;;;;;;;12.68;7.55;;;;;;;31.06;53.77;100573.38;5074741;28;20407;-83
2023/06/23 08:16:25;;;;;;;11.52;8.30;;;;;;;31.09;53.98;100566.91;5072229;28;20474;-83
2023/06/23 08:18:53;;;;;;;13.80;8.63;;;;;;;31.11;53.97;100581.41;5071983;28;20051;-83
2023/06/23 08:21:22;;;;;;;15.63;8.52;;;;;;;31.05;53.53;100581.09;5072241;28;20055;-83
2023/06/23 08:23:50;;;;;;;13.15;8.10;;;;;;;31.04;54.09;100573.03;5072256;28;20052;-85
2023/06/23 08:26:19;;;;;;;10.73;7.03;;;;;;;31.24;52.27;100581.66;5072274;28;20055;-85
2023/06/23 08:28:48;;;;;;;9.20;6.68;;;;;;;31.06;51.71;100574.19;5072099;28;20041;-84
2023/06/23 08:31:17;;;;;;;11.60;6.85;;;;;;;31.33;51.38;100578.34;5071073;28;20055;-84
2023/06/23 08:33:45;;;;;;;11.93;6.57;;;;;;;31.44;51.52;100578.16;5072252;28;20045;-83
2023/06/23 08:36:14;;;;;;;10.52;7.32;;;;;;;31.33;52.02;100573.47;5072253;28;20075;-84
2023/06/23 08:38:43;;;;;;;9.95;7.13;;;;;;;31.47;51.69;100568.84;5071704;28;20051;-84
2023/06/23 08:41:11;;;;;;;9.75;7.03;;;;;;;31.56;51.20;100580.41;5072391;28;20056;-83
2023/06/23 08:43:44;;;;;;;13.63;7.00;;;;;;;31.62;50.64;100577.94;5088091;28;20056;-84
2023/06/23 08:46:18;;;;;;;9.35;6.68;;;;;;;31.75;49.24;100578.13;5072599;28;20048;-83
2023/06/23 08:48:51;;;;;;;10.18;7.25;;;;;;;31.79;49.38;100573.22;5083160;28;20049;-84
2023/06/23 08:51:19;;;;;;;7.95;6.57;;;;;;;31.86;48.80;100566.69;5089182;28;20055;-83
2023/06/23 08:53:48;;;;;;;11.23;6.80;;;;;;;31.84;48.24;100563.44;5089486;28;20043;-83
2023/06/23 08:56:21;;;;;;;9.95;6.13;;;;;;;31.77;48.66;100561.53;5073628;28;20044;-83
2023/06/23 08:58:49;;;;;;;11.50;6.80;;;;;;;31.83;48.13;100551.34;5075099;28;20056;-84
2023/06/23 09:01:18;;;;;;;8.18;6.13;;;;;;;32.00;47.79;100566.44;5074538;28;20052;-84
2023/06/23 09:03:46;;;;;;;9.80;5.97;;;;;;;32.10;47.67;100558.97;5074516;28;20040;-84
2023/06/23 09:06:15;;;;;;;8.57;5.43;;;;;;;32.15;48.15;100550.00;5090451;28;20056;-85
2023/06/23 09:08:43;;;;;;;8.82;5.65;;;;;;;32.18;47.92;100560.47;5074135;28;20049;-84
2023/06/23 09:11:12;;;;;;;10.18;5.32;;;;;;;32.23;47.75;100550.69;5077662;28;20044;-84
2023/06/23 09:13:41;;;;;;;8.70;5.20;;;;;;;32.23;47.66;100552.69;5089968;28;20040;-84
2023/06/23 09:16:11;;;;;;;7.50;5.65;;;;;;;32.31;47.56;100551.34;5089181;28;20055;-83
2023/06/23 09:18:40;;;;;;;10.40;5.57;;;;;;;32.47;46.89;100561.19;5094443;28;20051;-82
2023/06/23 09:21:09;;;;;;;12.18;6.35;;;;;;;32.61;46.44;100558.09;5099919;28;20046;-87
2023/06/23 09:23:38;;;;;;;7.13;5.35;;;;;;;32.75;46.32;100561.88;5093561;28;20033;-84
2023/06/23 09:26:07;;;;;;;8.73;5.85;;;;;;;32.82;45.74;100565.38;5077291;28;20053;-84
2023/06/23 09:28:37;;;;;;;8.30;5.43;;;;;;;32.79;45.91;100556.97;5091207;28;20043;-86
2023/06/23 09:31:16;;;;;;;10.98;5.55;;;;;;;32.65;45.16;100555.19;5090777;28;20039;-85
2023/06/23 09:33:51;;;;;;;9.23;5.40;;;;;;;32.71;45.84;100542.91;5091245;28;20055;-84
2023/06/23 09:36:23;;;;;;;8.00;5.10;;;;;;;32.80;45.50;100541.53;5090187;28;20391;-84
2023/06/23 09:38:52;;;;;;;9.25;5.55;;;;;;;32.64;45.40;100551.56;5091593;28;20051;-83
2023/06/23 09:41:21;;;;;;;9.57;5.57;;;;;;;32.38;45.99;100554.06;5088792;28;20055;-85
2023/06/23 09:43:50;;;;;;;7.93;4.55;;;;;;;32.36;46.19;100565.03;5091323;28;20040;-83
2023/06/23 09:46:22;;;;;;;11.82;5.60;;;;;;;32.18;46.16;100571.81;5089612;28;20048;-85
2023/06/23 09:48:51;;;;;;;8.52;5.30;;;;;;;32.13;47.04;100563.81;5074281;28;20040;-85
2023/06/23 09:51:20;;;;;;;10.07;5.80;;;;;;;31.93;47.00;100560.91;5089120;28;20047;-84
2023/06/23 09:53:49;;;;;;;10.88;6.15;;;;;;;31.93;47.69;100566.56;5094805;28;20051;-85
2023/06/23 09:56:20;;;;;;;8.50;5.30;;;;;;;31.90;47.91;100568.22;5095082;28;20048;-84
2023/06/23 09:58:49;;;;;;;10.48;5.50;;;;;;;31.80;47.38;100574.03;5095163;28;20044;-86
2023/06/23 10:01:20;;;;;;;9.23;5.60;;;;;;;31.88;48.11;100573.50;5094900;28;20051;-85
2023/06/23 10:03:50;;;;;;;7.20;5.53;;;;;;;31.59;48.48;100573.91;5095982;28;20051;-86
2023/06/23 10:06:32;;;;;;;9.73;6.32;;;;;;;31.58;47.49;100569.50;5095292;28;20047;-86
2023/06/23 10:09:03;;;;;;;11.45;6.10;;;;;;;31.85;47.49;100565.06;5095377;28;20051;-86
2023/06/23 10:11:33;;;;;;;8.40;5.85;;;;;;;31.90;47.61;100579.53;5095104;28;20071;-86
2023/06/23 10:14:08;;;;;;;11.32;6.20;;;;;;;31.94;47.34;100581.50;5094946;28;20044;-85
2023/06/23 10:16:46;;;;;;;8.45;5.90;;;;;;;31.77;48.34;100553.06;5094820;28;20067;-86
2023/06/23 10:19:16;;;;;;;7.70;6.20;;;;;;;31.90;47.49;100561.75;5095515;28;20059;-86
2023/06/23 10:21:46;;;;;;;17.83;7.00;;;;;;;31.75;48.55;100570.44;5095340;28;20048;-86
2023/06/23 10:24:19;;;;;;;9.77;6.70;;;;;;;31.61;49.18;100559.34;5095657;28;20048;-86
2023/06/23 10:26:51;;;;;;;8.70;6.03;;;;;;;31.63;49.95;100559.72;5094708;28;20044;-86
2023/06/23 10:29:20;;;;;;;9.80;6.45;;;;;;;31.66;49.70;100573.00;5099532;28;20050;-86
2023/06/23 10:31:55;;;;;;;10.52;6.60;;;;;;;31.68;49.56;100562.06;5095464;28;20040;-86
2023/06/23 10:34:27;;;;;;;10.60;6.60;;;;;;;31.64;50.42;100559.31;5119173;28;20042;-85
2023/06/23 10:37:00;;;;;;;7.32;5.65;;;;;;;31.87;49.91;100574.72;5097577;28;20036;-86
2023/06/23 10:39:34;;;;;;;11.70;6.70;;;;;;;31.94;49.53;100573.00;5095618;28;20058;-85
2023/06/23 10:42:05;;;;;;;11.05;6.57;;;;;;;31.89;49.73;100582.78;5080543;28;20395;-85
2023/06/23 10:44:33;;;;;;;10.55;6.25;;;;;;;31.78;49.16;100588.59;5094584;28;20388;-86
2023/06/23 10:47:02;;;;;;;6.88;6.10;;;;;;;31.82;49.25;100582.88;5093918;28;20399;-85
2023/06/23 10:49:31;;;;;;;8.43;6.40;;;;;;;31.68;49.56;100581.88;5092732;28;20052;-86
2023/06/23 10:52:00;;;;;;;6.68;5.53;;;;;;;31.84;48.52;100581.25;5092435;28;20497;-85
2023/06/23 10:54:30;;;;;;;7.82;6.03;;;;;;;31.83;47.71;100571.13;5094538;28;20048;-85
2023/06/23 10:56:58;;;;;;;7.13;4.53;;;;;;;31.83;40.67;100579.63;5092855;28;20075;-89
2023/06/23 10:59:31;;;;;;;6.40;3.97;;;;;;;31.80;40.25;100586.13;5069672;28;20044;-86
2023/06/23 11:02:23;;;;;;;4.88;3.63;;;;;;;31.96;37.70;100585.50;5072447;28;20049;-85
2023/06/23 11:04:56;;;;;;;3.38;2.80;;;;;;;31.71;37.99;100583.84;5087990;28;20044;-84
2023/06/23 11:07:25;;;;;;;4.72;2.35;;;;;;;31.87;39.19;100577.53;5094066;28;20066;-85
2023/06/23 11:10:02;;;;;;;4.95;2.85;;;;;;;32.01;38.04;100575.72;5093732;28;20059;-84
2023/06/23 11:12:36;;;;;;;5.68;3.13;;;;;;;32.02;37.50;100580.16;5090880;28;20056;-85
2023/06/23 11:15:20;;;;;;;6.00;2.90;;;;;;;31.98;37.31;100591.53;5081126;28;20040;-84
2023/06/23 11:17:50;;;;;;;3.85;2.83;;;;;;;31.97;37.87;100586.31;5093756;28;20066;-84
2023/06/23 11:20:25;;;;;;;5.20;3.13;;;;;;;32.28;36.96;100594.66;5092485;28;20056;-84
2023/06/23 11:23:07;;;;;;;3.58;3.03;;;;;;;32.35;37.20;100591.72;5093901;28;20048;-86
2023/06/23 11:25:47;;;;;;;5.55;3.42;;;;;;;32.17;37.06;100578.66;5094138;28;20059;-84
2023/06/23 11:28:36;;;;;;;4.47;3.30;;;;;;;32.37;36.65;100589.25;5093899;28;20047;-85
2023/06/23 11:31:14;;;;;;;5.70;3.22;;;;;;;32.56;37.04;100584.09;5092800;28;20052;-84
2023/06/23 11:33:55;;;;;;;3.53;2.97;;;;;;;32.22;35.72;100593.56;5094329;28;20044;-84
2023/06/23 11:36:26;;;;;;;4.38;2.95;;;;;;;32.39;37.24;100594.47;5094969;28;20052;-84
2023/06/23 11:38:56;;;;;;;3.08;2.83;;;;;;;32.58;36.65;100590.13;5094611;28;20056;-84